This is the latest recevied weather packets stored in our database for station/object KBTL-WX. If no packets are shown the sender has not sent any weather packets the latest 10 day(s).
| Time | Temp. | Humidity | Pressure | Rain* | Wind** | Luminosity | Snow |
|---|---|---|---|---|---|---|---|
| 1778140838 | 3.89° C | 74% | 979.8 hPa | 0 mm | - | - | - |
| 1778139917 | 4.44° C | 71% | 980 hPa | 0 mm | - | - | - |
| 1778139036 | 4.44° C | 71% | 980 hPa | 0 mm | - | - | - |
| 1778138116 | 4.44° C | 71% | 980 hPa | 0 mm | - | - | - |
| 1778137239 | 4.44° C | 71% | 980 hPa | 0 mm | - | - | - |
| 1778136316 | 5° C | 62% | 980.8 hPa | 0 mm | - | - | - |
| 1778135430 | 5.56° C | 62% | 980.9 hPa | 0 mm | - | - | - |
| 1778134516 | 5.56° C | 62% | 980.9 hPa | 0 mm | - | - | - |
| 1778133637 | 6.11° C | 62% | 980.9 hPa | 0 mm | - | - | - |
| 1778132716 | 6.11° C | 55% | 981.4 hPa | 0 mm | - | - | - |
| 1778131833 | 6.11° C | 55% | 981.4 hPa | 0 mm | - | - | - |
| 1778130916 | 6.67° C | 55% | 981.4 hPa | 0 mm | - | - | - |
| 1778130041 | 6.67° C | 56% | 980.6 hPa | 0 mm | - | - | - |
| 1778129115 | 7.78° C | 48% | 981.3 hPa | 0 mm | - | - | - |
| 1778128230 | 8.33° C | 48% | 981.3 hPa | 0 mm | - | - | - |
| 1778127315 | 7.78° C | 48% | 981.2 hPa | 0 mm | - | - | - |
| 1778126442 | 7.78° C | 48% | 981.2 hPa | 0 mm | - | - | - |
| 1778125515 | 7.78° C | 44% | 981.6 hPa | 0 mm | - | - | - |
| 1778124629 | 8.33° C | 51% | 981.2 hPa | 0 mm | - | - | - |
| 1778123714 | 8.33° C | 51% | 981.2 hPa | 0 mm | - | - | - |
| 1778122840 | 8.33° C | 51% | 981.2 hPa | 0 mm | - | - | - |
| 1778121915 | 8.33° C | 47% | 981.7 hPa | 0 mm | - | - | - |
| 1778121028 | 8.33° C | 47% | 981.6 hPa | 0 mm | - | - | - |
| 1778120114 | 7.22° C | 47% | 981.5 hPa | 0 mm | - | - | - |
| 1778119233 | 7.22° C | 47% | 981.5 hPa | 0 mm | - | - | - |
* Rain latest hour (hover to see other rain measurements)
** Current wind speed in m/s (hover to see current wind gust speed)